Time;durP1;ratioP1;P1;durP2;ratioP2;P2;SDS_P1;SDS_P2;PMS_P1;PMS_P2;Temp;Humidity;BMP_temperature;BMP_pressure;BME280_temperature;BME280_humidity;BME280_pressure;Samples;Min_cycle;Max_cycle;Signal;HPM_P1;HPM_P2
2023/01/31 00:00:12;;;;;;;8.73;3.30;;;3.00;62.40;;;;;;5030012;28;46425;-64
2023/01/31 00:02:38;;;;;;;12.30;4.13;;;3.00;62.30;;;;;;5029725;28;46514;-62
2023/01/31 00:05:03;;;;;;;7.80;3.07;;;3.00;62.30;;;;;;5029996;28;46530;-63
2023/01/31 00:07:29;;;;;;;15.03;4.63;;;3.00;62.20;;;;;;5029533;28;46409;-65
2023/01/31 00:09:54;;;;;;;6.13;3.63;;;2.90;62.70;;;;;;5029336;28;47118;-63
2023/01/31 00:12:20;;;;;;;7.37;3.77;;;2.90;62.90;;;;;;5029878;28;45870;-63
2023/01/31 00:14:46;;;;;;;7.20;4.30;;;2.80;62.80;;;;;;5029302;28;46386;-64
2023/01/31 00:17:11;;;;;;;8.80;4.10;;;2.90;62.80;;;;;;5030446;28;46724;-62
2023/01/31 00:19:37;;;;;;;7.90;4.30;;;3.00;62.50;;;;;;5029033;28;46017;-62
2023/01/31 00:22:02;;;;;;;6.67;3.70;;;3.00;62.20;;;;;;5028795;28;46493;-63
2023/01/31 00:24:28;;;;;;;7.10;3.87;;;3.00;62.20;;;;;;5029304;28;46448;-63
2023/01/31 00:26:55;;;;;;;5.63;3.83;;;3.10;62.10;;;;;;5029867;28;46920;-63
2023/01/31 00:29:24;;;;;;;5.77;4.03;;;3.10;61.80;;;;;;5027748;28;46529;-64
2023/01/31 00:31:50;;;;;;;7.50;4.18;;;3.10;61.70;;;;;;5034659;28;46397;-63
2023/01/31 00:34:16;;;;;;;7.47;3.97;;;3.10;61.70;;;;;;5031091;28;46825;-64
2023/01/31 00:36:42;;;;;;;4.60;3.67;;;3.10;61.60;;;;;;5033211;28;46410;-64
2023/01/31 00:39:08;;;;;;;7.17;4.33;;;3.10;61.70;;;;;;5033085;28;47214;-64
2023/01/31 00:41:35;;;;;;;7.37;4.03;;;3.10;61.60;;;;;;5032512;28;45984;-64
2023/01/31 00:44:02;;;;;;;9.70;4.68;;;3.10;61.60;;;;;;5031139;28;46530;-64
2023/01/31 00:46:28;;;;;;;8.23;4.20;;;3.10;61.70;;;;;;5033609;28;46469;-64
2023/01/31 00:48:55;;;;;;;9.23;4.57;;;3.10;61.80;;;;;;5032072;28;46234;-64
2023/01/31 00:51:22;;;;;;;9.00;4.88;;;3.10;61.70;;;;;;5032492;28;45987;-64
2023/01/31 00:53:49;;;;;;;7.70;4.70;;;3.10;61.70;;;;;;5033206;28;46544;-64
2023/01/31 00:56:17;;;;;;;7.03;4.47;;;3.00;61.60;;;;;;5032317;28;46566;-65
2023/01/31 00:58:43;;;;;;;7.32;4.90;;;3.00;62.80;;;;;;5031789;28;46604;-64
2023/01/31 01:01:14;;;;;;;6.10;3.87;;;3.00;62.90;;;;;;5032814;28;46579;-64
2023/01/31 01:03:42;;;;;;;8.13;5.55;;;3.00;61.60;;;;;;5032070;28;46662;-63
2023/01/31 01:06:08;;;;;;;9.70;4.87;;;3.00;61.50;;;;;;5031634;28;46470;-63
2023/01/31 01:08:35;;;;;;;7.95;5.00;;;3.10;61.60;;;;;;5032085;28;46518;-63
2023/01/31 01:11:12;;;;;;;9.02;5.05;;;3.20;61.60;;;;;;5031715;28;46076;-63
2023/01/31 01:13:39;;;;;;;11.30;5.10;;;3.00;61.40;;;;;;5032379;28;46481;-62
2023/01/31 01:16:17;;;;;;;9.60;5.20;;;3.10;61.60;;;;;;5031075;28;46589;-63
2023/01/31 01:18:45;;;;;;;10.15;5.05;;;3.10;61.70;;;;;;5032320;28;45961;-64
2023/01/31 01:21:19;;;;;;;8.68;4.85;;;3.10;61.60;;;;;;5031881;28;46595;-63
2023/01/31 01:23:46;;;;;;;7.40;4.50;;;3.00;61.40;;;;;;5031708;28;46475;-63
2023/01/31 01:26:38;;;;;;;9.80;5.30;;;3.10;61.50;;;;;;5032701;28;46907;-63
2023/01/31 01:29:03;;;;;;;6.97;4.90;;;3.10;61.40;;;;;;5009413;28;49005;-62
2023/01/31 01:31:30;;;;;;;10.77;4.93;;;3.00;61.30;;;;;;5032483;28;46013;-64
2023/01/31 01:33:58;;;;;;;9.38;5.13;;;3.00;61.30;;;;;;5031545;28;46493;-64
2023/01/31 01:36:25;;;;;;;8.43;4.87;;;3.00;61.40;;;;;;5032314;28;46623;-64
2023/01/31 01:38:51;;;;;;;10.45;5.05;;;3.00;61.50;;;;;;5030065;28;46596;-63
2023/01/31 01:41:18;;;;;;;10.48;5.40;;;3.00;61.30;;;;;;5031864;28;46732;-64
2023/01/31 01:43:50;;;;;;;8.48;5.10;;;3.00;61.40;;;;;;5032006;28;46615;-64
2023/01/31 01:46:27;;;;;;;9.13;4.90;;;3.00;61.40;;;;;;5031504;28;46430;-65
2023/01/31 01:49:04;;;;;;;9.07;4.55;;;2.90;61.50;;;;;;5030677;28;47123;-64
2023/01/31 01:51:32;;;;;;;9.60;4.82;;;2.90;61.60;;;;;;5032274;28;46641;-64
2023/01/31 01:54:02;;;;;;;8.18;4.97;;;2.90;61.70;;;;;;5030354;28;46470;-64
2023/01/31 01:56:32;;;;;;;7.80;4.68;;;2.90;61.70;;;;;;5032889;28;46694;-64
2023/01/31 01:59:30;;;;;;;8.35;4.90;;;2.90;61.60;;;;;;5029296;28;46814;-63
2023/01/31 02:01:56;;;;;;;10.48;5.55;;;2.80;61.70;;;;;;5015897;28;46758;-64
2023/01/31 02:04:28;;;;;;;9.00;5.00;;;2.70;61.90;;;;;;5030838;28;46525;-63
2023/01/31 02:06:54;;;;;;;8.20;4.65;;;2.60;62.30;;;;;;5031275;28;46540;-64
2023/01/31 02:09:30;;;;;;;7.27;4.97;;;2.50;62.30;;;;;;5012709;28;46422;-65
2023/01/31 02:11:57;;;;;;;9.00;4.88;;;2.30;62.60;;;;;;5033040;28;47011;-64
2023/01/31 02:14:24;;;;;;;8.70;4.75;;;2.20;62.90;;;;;;5036243;28;46569;-64
2023/01/31 02:16:50;;;;;;;9.00;4.63;;;2.10;63.50;;;;;;5031658;28;47411;-63
2023/01/31 02:19:34;;;;;;;9.07;4.40;;;1.90;64.00;;;;;;5030691;28;46471;-64
2023/01/31 02:22:11;;;;;;;8.57;5.00;;;1.80;64.50;;;;;;5029843;28;46632;-64
2023/01/31 02:24:49;;;;;;;8.38;4.25;;;1.60;65.20;;;;;;5030898;28;47090;-62
2023/01/31 02:27:49;;;;;;;7.32;4.70;;;1.50;65.50;;;;;;5032041;28;46440;-63
2023/01/31 02:30:52;;;;;;;12.82;4.80;;;1.40;65.80;;;;;;5030780;28;46723;-63
2023/01/31 02:33:41;;;;;;;14.77;5.20;;;1.20;65.80;;;;;;5031540;28;46648;-63
2023/01/31 02:36:32;;;;;;;10.10;4.95;;;1.30;65.90;;;;;;5030649;28;46452;-63
2023/01/31 02:39:14;;;;;;;9.20;4.88;;;1.20;65.80;;;;;;5029817;28;46596;-62
2023/01/31 02:41:46;;;;;;;11.10;5.00;;;1.20;65.80;;;;;;5030777;28;46579;-64
2023/01/31 02:44:59;;;;;;;8.10;5.47;;;1.10;65.60;;;;;;5029188;28;45991;-63
2023/01/31 02:47:28;;;;;;;11.88;4.75;;;1.10;65.80;;;;;;5031102;28;46468;-63
2023/01/31 02:50:06;;;;;;;9.75;5.00;;;1.00;65.80;;;;;;5030123;28;46585;-63
2023/01/31 02:52:47;;;;;;;12.32;5.82;;;1.00;65.70;;;;;;5029801;28;46492;-64
2023/01/31 02:58:07;;;;;;;15.65;5.90;;;0.90;65.50;;;;;;5025606;28;45883;-63
2023/01/31 03:00:35;;;;;;;14.88;6.30;;;0.90;65.40;;;;;;5030458;28;46507;-64
2023/01/31 03:03:06;;;;;;;9.70;5.18;;;0.90;65.40;;;;;;5028479;28;46435;-62
2023/01/31 03:05:31;;;;;;;13.05;4.82;;;0.90;65.20;;;;;;5029249;28;46807;-64
2023/01/31 03:08:00;;;;;;;15.77;5.50;;;1.00;64.80;;;;;;5029681;28;46426;-62
2023/01/31 03:11:01;;;;;;;7.45;4.63;;;1.10;64.60;;;;;;5030459;28;46516;-61
2023/01/31 03:13:55;;;;;;;9.93;4.85;;;1.20;64.30;;;;;;4984519;28;47156;-63
2023/01/31 03:19:31;;;;;;;10.70;4.55;;;1.20;64.00;;;;;;5028847;28;45807;-64
2023/01/31 03:22:02;;;;;;;9.65;4.85;;;1.20;64.10;;;;;;5027355;28;46393;-64
2023/01/31 03:24:29;;;;;;;13.68;5.68;;;1.20;65.00;;;;;;5033099;28;47774;-65
2023/01/31 03:26:57;;;;;;;14.10;5.30;;;1.30;63.80;;;;;;5030600;28;46585;-64
2023/01/31 03:29:26;;;;;;;9.27;5.25;;;1.30;63.90;;;;;;5029774;28;45943;-63
2023/01/31 03:32:05;;;;;;;12.02;5.00;;;1.30;64.00;;;;;;5029819;28;46845;-63
2023/01/31 03:34:31;;;;;;;9.38;4.90;;;1.30;63.80;;;;;;5029475;28;47502;-64
2023/01/31 03:37:26;;;;;;;13.32;5.07;;;1.30;63.70;;;;;;5029079;28;46404;-64
2023/01/31 03:40:00;;;;;;;12.88;5.32;;;1.30;63.80;;;;;;5029051;28;46557;-65
2023/01/31 03:43:03;;;;;;;7.75;4.57;;;1.20;64.10;;;;;;5029276;28;46574;-64
2023/01/31 03:45:34;;;;;;;10.73;4.97;;;1.20;64.30;;;;;;5029622;28;46495;-63
2023/01/31 03:48:05;;;;;;;10.70;5.40;;;1.10;64.40;;;;;;5029056;28;46998;-63
2023/01/31 03:50:37;;;;;;;7.63;4.65;;;1.10;64.60;;;;;;5028731;28;46569;-63
2023/01/31 03:53:21;;;;;;;12.38;5.20;;;1.10;64.60;;;;;;5032965;28;45819;-63
2023/01/31 03:56:06;;;;;;;18.38;5.50;;;1.10;64.50;;;;;;5028625;28;46495;-62
2023/01/31 03:58:38;;;;;;;10.70;5.32;;;1.10;64.60;;;;;;5028895;28;46601;-63
2023/01/31 04:01:07;;;;;;;11.15;5.30;;;1.00;64.80;;;;;;5029059;28;46630;-63
2023/01/31 04:03:49;;;;;;;12.10;6.20;;;1.00;65.00;;;;;;5030039;28;46576;-62
2023/01/31 04:06:15;;;;;;;9.35;4.95;;;0.90;65.10;;;;;;5028653;28;46405;-62
2023/01/31 04:08:42;;;;;;;10.48;5.40;;;0.90;65.20;;;;;;5031036;28;46476;-62
2023/01/31 04:11:10;;;;;;;10.88;5.10;;;0.90;65.30;;;;;;5014810;28;45829;-63
2023/01/31 04:13:36;;;;;;;9.70;5.35;;;0.80;65.30;;;;;;5032712;28;46680;-63
2023/01/31 04:16:01;;;;;;;11.83;5.90;;;0.70;65.40;;;;;;5013726;28;46704;-64
2023/01/31 04:18:27;;;;;;;8.57;5.03;;;0.70;65.70;;;;;;5032456;28;46538;-64
2023/01/31 04:20:53;;;;;;;12.93;5.53;;;0.60;65.90;;;;;;5033082;28;46460;-63
2023/01/31 04:23:18;;;;;;;9.90;5.53;;;0.50;65.90;;;;;;5031993;28;46469;-63
2023/01/31 04:25:45;;;;;;;10.50;5.63;;;0.50;65.90;;;;;;5033557;28;46476;-63
2023/01/31 04:28:11;;;;;;;14.15;6.05;;;0.50;66.00;;;;;;5031543;28;46465;-64
2023/01/31 04:30:36;;;;;;;7.90;4.82;;;0.40;66.10;;;;;;5033100;28;46496;-63
2023/01/31 04:33:03;;;;;;;11.47;6.03;;;0.40;66.20;;;;;;5032592;28;46446;-65
2023/01/31 04:35:28;;;;;;;10.18;4.85;;;0.40;66.20;;;;;;5014430;28;46493;-65
2023/01/31 04:37:54;;;;;;;9.10;5.23;;;0.40;66.20;;;;;;5031589;28;46464;-63
2023/01/31 04:40:20;;;;;;;9.80;4.90;;;0.40;66.10;;;;;;5032704;28;46521;-64
2023/01/31 04:42:45;;;;;;;7.40;4.33;;;0.50;66.40;;;;;;5033220;28;46584;-63
2023/01/31 04:45:11;;;;;;;10.50;5.20;;;0.40;66.30;;;;;;5032703;28;47338;-63
2023/01/31 04:47:37;;;;;;;11.93;5.97;;;0.50;66.30;;;;;;5032544;28;46473;-63
2023/01/31 04:50:03;;;;;;;10.83;5.80;;;0.60;66.30;;;;;;5036829;28;45967;-62
2023/01/31 04:52:29;;;;;;;12.77;6.03;;;0.70;65.80;;;;;;5037018;28;46548;-62
2023/01/31 04:54:54;;;;;;;11.93;5.43;;;0.80;65.30;;;;;;5033088;28;46921;-62
2023/01/31 04:57:21;;;;;;;7.97;4.80;;;1.00;65.20;;;;;;5033089;28;46410;-64
2023/01/31 04:59:49;;;;;;;11.70;5.70;;;1.00;64.80;;;;;;5045873;22;46533;-64
2023/01/31 05:02:14;;;;;;;10.15;5.40;;;1.10;64.90;;;;;;5033157;28;46489;-64
2023/01/31 05:04:40;;;;;;;11.27;5.03;;;1.20;65.10;;;;;;5033647;28;47120;-63
2023/01/31 05:07:05;;;;;;;16.13;4.60;;;1.20;65.20;;;;;;5033761;28;46450;-63
2023/01/31 05:09:31;;;;;;;13.13;5.90;;;1.30;65.60;;;;;;5033224;28;46480;-63
2023/01/31 05:11:57;;;;;;;14.43;5.67;;;1.30;65.40;;;;;;5032964;28;46576;-63
2023/01/31 05:14:22;;;;;;;12.57;5.60;;;1.40;65.20;;;;;;5033411;28;46093;-64
2023/01/31 05:16:48;;;;;;;7.50;4.90;;;1.50;65.00;;;;;;5032668;28;46777;-63
2023/01/31 05:19:14;;;;;;;10.80;5.57;;;1.60;64.60;;;;;;5032329;28;46433;-64
2023/01/31 05:21:58;;;;;;;12.38;5.57;;;1.70;64.30;;;;;;5033414;28;46386;-63
2023/01/31 05:24:28;;;;;;;10.20;4.75;;;1.70;64.20;;;;;;5034081;28;46270;-63
2023/01/31 05:26:57;;;;;;;7.35;4.80;;;1.70;64.00;;;;;;5033512;28;46509;-63
2023/01/31 05:29:24;;;;;;;7.32;4.82;;;1.90;64.00;;;;;;5033276;28;46674;-62
2023/01/31 05:31:51;;;;;;;12.35;5.50;;;1.80;63.80;;;;;;5034264;28;46370;-63
2023/01/31 05:34:17;;;;;;;7.70;4.35;;;1.90;63.70;;;;;;5031303;28;46465;-63
2023/01/31 05:36:42;;;;;;;10.27;4.47;;;1.90;63.50;;;;;;5033301;28;46365;-63
2023/01/31 05:39:08;;;;;;;11.40;5.00;;;2.00;63.40;;;;;;5032500;28;46630;-63
2023/01/31 05:41:34;;;;;;;8.70;4.97;;;2.00;63.30;;;;;;5032243;28;46646;-62
2023/01/31 05:44:00;;;;;;;9.67;4.53;;;2.00;63.30;;;;;;5028605;28;46541;-64
2023/01/31 05:46:25;;;;;;;8.93;4.80;;;2.00;63.50;;;;;;5033004;28;47558;-63
2023/01/31 05:48:51;;;;;;;10.70;4.67;;;2.10;63.40;;;;;;5032670;28;46704;-64
2023/01/31 05:51:16;;;;;;;12.23;4.33;;;2.10;63.40;;;;;;5032731;28;46675;-63
2023/01/31 05:53:42;;;;;;;9.80;4.83;;;2.10;63.40;;;;;;5032148;28;46695;-64
2023/01/31 05:56:08;;;;;;;12.83;4.37;;;2.10;63.40;;;;;;5032540;28;46826;-64
2023/01/31 05:58:33;;;;;;;8.47;4.60;;;2.10;63.30;;;;;;5030688;28;46009;-63
2023/01/31 06:00:59;;;;;;;10.33;5.10;;;2.10;63.30;;;;;;5032995;28;45999;-64
2023/01/31 06:03:24;;;;;;;7.57;4.10;;;2.10;63.50;;;;;;5032412;28;46627;-65
2023/01/31 06:05:50;;;;;;;12.10;4.07;;;2.10;63.50;;;;;;5032321;28;46428;-62
2023/01/31 06:08:16;;;;;;;9.80;4.83;;;2.10;63.70;;;;;;5031907;28;47528;-62
2023/01/31 06:10:42;;;;;;;12.10;5.07;;;2.10;63.60;;;;;;5032275;28;46485;-63
2023/01/31 06:13:08;;;;;;;10.43;4.73;;;2.20;63.70;;;;;;5032224;28;47101;-65
2023/01/31 06:15:33;;;;;;;10.60;4.97;;;2.20;63.50;;;;;;5032282;28;46621;-64
2023/01/31 06:17:59;;;;;;;9.23;5.10;;;2.20;63.50;;;;;;5032428;28;46417;-64
2023/01/31 06:20:25;;;;;;;15.63;4.60;;;2.10;63.60;;;;;;5031798;28;46414;-63
2023/01/31 06:22:51;;;;;;;10.77;4.95;;;2.20;63.70;;;;;;5031877;28;46433;-64
2023/01/31 06:25:17;;;;;;;9.70;5.13;;;2.10;63.50;;;;;;5032320;28;46794;-64
2023/01/31 06:27:42;;;;;;;14.03;5.50;;;2.10;63.50;;;;;;5031641;28;47042;-64
2023/01/31 06:30:09;;;;;;;17.17;5.10;;;2.10;63.60;;;;;;5031659;28;46509;-64
2023/01/31 06:32:35;;;;;;;18.50;5.95;;;2.20;63.60;;;;;;5031244;28;46461;-64
2023/01/31 06:35:02;;;;;;;9.63;5.20;;;2.10;63.50;;;;;;5031908;28;46238;-64
2023/01/31 06:37:27;;;;;;;16.90;5.93;;;2.10;63.60;;;;;;5031707;28;46486;-64
2023/01/31 06:39:53;;;;;;;11.63;6.00;;;2.10;63.60;;;;;;5031072;28;46907;-64
2023/01/31 06:42:19;;;;;;;10.67;5.23;;;2.10;63.60;;;;;;5031161;28;46176;-63
2023/01/31 06:44:44;;;;;;;10.10;5.00;;;2.10;63.50;;;;;;5030331;28;46472;-64
2023/01/31 06:47:11;;;;;;;11.80;5.93;;;2.10;63.60;;;;;;5031593;28;46507;-65
2023/01/31 06:49:37;;;;;;;9.38;5.38;;;2.20;63.60;;;;;;5031158;28;46407;-62
2023/01/31 06:52:03;;;;;;;20.20;9.40;;;2.10;64.90;;;;;;5030791;28;46916;-61
2023/01/31 06:54:28;;;;;;;8.90;5.50;;;2.10;63.60;;;;;;5031306;28;45853;-63
2023/01/31 06:56:54;;;;;;;10.63;4.97;;;2.10;63.60;;;;;;5031288;28;46436;-62
2023/01/31 06:59:20;;;;;;;9.37;4.63;;;2.10;63.60;;;;;;5030268;28;46634;-63
2023/01/31 07:01:45;;;;;;;11.20;4.60;;;2.10;63.40;;;;;;5030451;28;47043;-63
2023/01/31 07:04:11;;;;;;;9.23;4.57;;;2.20;63.30;;;;;;5031727;28;46564;-64
2023/01/31 07:06:36;;;;;;;15.00;4.80;;;2.20;63.00;;;;;;5033343;28;46536;-64
2023/01/31 07:09:02;;;;;;;31.73;5.87;;;2.30;63.00;;;;;;5030045;28;45975;-64
2023/01/31 07:11:28;;;;;;;12.60;4.63;;;2.40;63.10;;;;;;5030884;28;46440;-63
2023/01/31 07:13:53;;;;;;;7.80;4.43;;;2.40;62.80;;;;;;5030188;28;46716;-65
2023/01/31 07:16:21;;;;;;;10.17;4.40;;;2.40;62.70;;;;;;5030553;28;46096;-64
2023/01/31 07:18:47;;;;;;;12.25;4.30;;;2.50;62.80;;;;;;5030993;28;46481;-64
2023/01/31 07:21:12;;;;;;;10.23;4.67;;;2.50;62.70;;;;;;5026586;28;46655;-64
2023/01/31 07:23:38;;;;;;;9.27;4.37;;;2.70;62.90;;;;;;5030560;28;46919;-69
2023/01/31 07:26:04;;;;;;;11.73;4.30;;;2.60;62.60;;;;;;5032313;28;45932;-65
2023/01/31 07:28:30;;;;;;;10.20;4.20;;;2.80;62.80;;;;;;5034701;28;46485;-64
2023/01/31 07:31:02;;;;;;;8.40;4.20;;;2.70;62.90;;;;;;5029556;28;47420;-65
2023/01/31 07:33:29;;;;;;;11.93;3.70;;;2.60;63.10;;;;;;5030547;28;46529;-64
2023/01/31 07:35:54;;;;;;;10.88;3.47;;;2.50;63.40;;;;;;5030272;28;46564;-64
2023/01/31 07:38:20;;;;;;;12.27;4.33;;;2.40;63.60;;;;;;5029398;28;46783;-65
2023/01/31 07:40:45;;;;;;;9.30;4.00;;;2.20;63.80;;;;;;5029003;28;46828;-65
2023/01/31 07:43:11;;;;;;;12.93;4.33;;;2.20;65.30;;;;;;5029129;28;46647;-65
2023/01/31 07:45:38;;;;;;;6.27;3.20;;;2.10;64.40;;;;;;5029090;28;45971;-63
2023/01/31 07:48:05;;;;;;;9.98;4.82;;;2.00;64.40;;;;;;5028390;28;46630;-63
2023/01/31 07:50:30;;;;;;;14.82;3.88;;;1.90;64.30;;;;;;5029384;28;46529;-63
2023/01/31 07:52:57;;;;;;;8.13;3.97;;;1.90;64.50;;;;;;5029063;28;46552;-63
2023/01/31 07:55:23;;;;;;;8.60;3.90;;;1.90;64.50;;;;;;5010423;28;46719;-65
2023/01/31 07:57:49;;;;;;;9.60;4.13;;;1.80;64.50;;;;;;5029526;28;47476;-64
2023/01/31 08:05:45;;;;;;;8.90;3.50;;;1.80;64.30;;;;;;5029249;28;46524;-63
2023/01/31 08:08:12;;;;;;;10.80;3.65;;;1.80;64.20;;;;;;5029483;28;46466;-64
2023/01/31 08:10:37;;;;;;;10.45;4.07;;;1.90;64.10;;;;;;5028626;28;46497;-64
2023/01/31 08:13:03;;;;;;;10.00;3.90;;;1.90;64.00;;;;;;5028517;28;46438;-61
2023/01/31 08:15:29;;;;;;;6.90;3.60;;;1.90;64.00;;;;;;5028590;28;46521;-65
2023/01/31 08:17:55;;;;;;;5.70;3.27;;;1.90;63.90;;;;;;5029518;28;46527;-64
2023/01/31 08:20:20;;;;;;;6.90;3.80;;;2.00;63.80;;;;;;5028968;28;46886;-62
2023/01/31 08:22:46;;;;;;;9.00;4.07;;;2.10;63.60;;;;;;5028408;28;46542;-64
2023/01/31 08:25:11;;;;;;;15.07;3.90;;;2.10;63.50;;;;;;5029419;28;46517;-63
2023/01/31 08:27:37;;;;;;;15.63;4.10;;;2.10;63.40;;;;;;5029939;28;46808;-62
2023/01/31 08:30:03;;;;;;;7.40;3.50;;;2.20;63.30;;;;;;5028208;28;46650;-64
2023/01/31 08:32:29;;;;;;;11.65;3.60;;;2.30;63.20;;;;;;5029329;28;45955;-64
2023/01/31 08:34:54;;;;;;;9.90;3.37;;;2.30;62.90;;;;;;5029272;28;45916;-62
2023/01/31 08:37:20;;;;;;;10.13;3.97;;;2.40;62.90;;;;;;5030973;28;45919;-64
2023/01/31 08:39:47;;;;;;;7.33;3.50;;;2.50;62.70;;;;;;5029024;28;46619;-63
2023/01/31 08:42:13;;;;;;;12.98;4.10;;;2.60;62.50;;;;;;5029390;28;46616;-63
2023/01/31 08:44:38;;;;;;;11.83;3.63;;;2.60;62.40;;;;;;5030834;28;46493;-64
2023/01/31 08:47:04;;;;;;;13.80;4.93;;;2.60;62.40;;;;;;5030692;28;46658;-64
2023/01/31 08:49:30;;;;;;;5.47;2.87;;;2.70;62.20;;;;;;5029014;28;46977;-64
2023/01/31 08:51:55;;;;;;;12.17;4.17;;;2.80;61.90;;;;;;5028327;28;46673;-63
2023/01/31 08:54:21;;;;;;;9.20;4.33;;;3.00;61.90;;;;;;5029792;28;46531;-64
2023/01/31 08:56:46;;;;;;;9.07;3.60;;;3.10;61.70;;;;;;5032987;28;46437;-63
2023/01/31 08:59:12;;;;;;;10.70;4.20;;;3.20;61.40;;;;;;5031545;28;46993;-62
2023/01/31 09:01:40;;;;;;;5.60;2.90;;;3.30;61.30;;;;;;5032822;28;46553;-64
2023/01/31 09:04:05;;;;;;;14.60;3.38;;;3.40;61.00;;;;;;5031997;28;46434;-61
2023/01/31 09:06:31;;;;;;;10.33;3.50;;;3.50;60.40;;;;;;5034313;28;46441;-62
2023/01/31 09:08:57;;;;;;;6.23;3.10;;;3.60;60.20;;;;;;5032302;28;47182;-61
2023/01/31 09:11:25;;;;;;;10.20;2.97;;;3.70;60.00;;;;;;5032783;28;46887;-62
2023/01/31 09:13:51;;;;;;;5.72;3.03;;;3.80;60.10;;;;;;5043130;28;46497;-62
2023/01/31 09:16:17;;;;;;;8.43;2.97;;;3.80;60.00;;;;;;5036011;28;46520;-63
2023/01/31 09:18:43;;;;;;;6.85;3.13;;;3.90;60.00;;;;;;5032357;28;46576;-63
2023/01/31 09:21:12;;;;;;;13.07;3.30;;;4.00;59.80;;;;;;5033020;28;46494;-61
2023/01/31 09:23:38;;;;;;;5.37;2.73;;;4.00;59.70;;;;;;5032288;28;45923;-62
2023/01/31 09:26:04;;;;;;;14.67;3.10;;;4.10;59.50;;;;;;5032098;28;46563;-61
2023/01/31 09:28:30;;;;;;;7.90;3.03;;;4.20;59.40;;;;;;5032856;28;46941;-63
2023/01/31 09:31:05;;;;;;;11.93;3.60;;;4.30;59.00;;;;;;5032622;28;46561;-62
2023/01/31 09:33:32;;;;;;;7.13;2.90;;;4.40;58.70;;;;;;5028868;28;46586;-64
2023/01/31 09:36:00;;;;;;;8.83;3.40;;;4.40;58.30;;;;;;5031041;28;46513;-62
2023/01/31 09:38:26;;;;;;;11.30;2.83;;;4.50;58.40;;;;;;5029564;28;47270;-63
2023/01/31 09:40:53;;;;;;;5.60;2.50;;;4.50;58.10;;;;;;5030078;28;46473;-65
2023/01/31 09:43:23;;;;;;;11.17;3.33;;;4.80;57.80;;;;;;5030363;28;46823;-63
2023/01/31 09:45:50;;;;;;;5.90;2.83;;;4.70;57.40;;;;;;5030877;28;46450;-61
2023/01/31 09:48:20;;;;;;;6.70;2.73;;;4.70;56.80;;;;;;5030313;28;47022;-63
2023/01/31 09:50:54;;;;;;;10.30;2.73;;;4.70;54.90;;;;;;5030937;28;46546;-63
2023/01/31 09:53:28;;;;;;;9.93;3.00;;;4.70;53.80;;;;;;5030429;28;46509;-66
2023/01/31 09:56:08;;;;;;;6.43;2.37;;;5.00;53.50;;;;;;5031755;28;46474;-64
2023/01/31 09:58:51;;;;;;;7.53;2.83;;;5.20;52.70;;;;;;5029990;28;47300;-64
2023/01/31 10:01:43;;;;;;;9.23;2.20;;;5.50;51.50;;;;;;5030744;28;46437;-64
2023/01/31 10:04:27;;;;;;;7.13;2.40;;;5.40;49.40;;;;;;5030690;28;46817;-64
2023/01/31 10:07:08;;;;;;;9.13;2.40;;;5.30;48.00;;;;;;5029807;28;46438;-63
2023/01/31 10:09:35;;;;;;;9.77;2.70;;;5.50;48.80;;;;;;5030611;28;46688;-64
2023/01/31 10:12:48;;;;;;;7.07;2.37;;;5.60;47.40;;;;;;5030405;28;46538;-65
2023/01/31 10:15:39;;;;;;;8.77;2.63;;;5.60;47.90;;;;;;4988315;28;46541;-64
2023/01/31 10:18:11;;;;;;;10.43;3.43;;;5.80;47.90;;;;;;4988061;28;45957;-64
2023/01/31 10:20:52;;;;;;;9.20;3.30;;;5.90;47.70;;;;;;5016084;28;46579;-63
2023/01/31 10:23:33;;;;;;;12.43;3.20;;;6.00;47.40;;;;;;5029157;28;46481;-66
2023/01/31 10:26:02;;;;;;;6.10;2.27;;;5.80;46.70;;;;;;5029871;28;46403;-66
2023/01/31 10:29:03;;;;;;;9.53;2.80;;;5.90;47.00;;;;;;5029939;28;46565;-63
2023/01/31 10:31:50;;;;;;;7.90;2.30;;;5.90;47.10;;;;;;5028883;28;46568;-66
2023/01/31 10:34:28;;;;;;;11.63;2.73;;;5.80;47.40;;;;;;5029623;28;46593;-65
2023/01/31 10:37:11;;;;;;;6.23;2.90;;;5.70;47.50;;;;;;5032035;28;45885;-66
2023/01/31 10:39:43;;;;;;;7.13;2.67;;;5.70;47.60;;;;;;5029401;28;46686;-64
2023/01/31 10:42:35;;;;;;;6.33;2.10;;;5.80;47.40;;;;;;5025836;28;46964;-64
2023/01/31 10:45:10;;;;;;;5.17;2.43;;;6.10;47.20;;;;;;5027618;28;46728;-65
2023/01/31 10:47:48;;;;;;;12.30;3.50;;;6.30;44.60;;;;;;5028936;28;46527;-65
2023/01/31 10:50:17;;;;;;;12.27;3.50;;;5.80;42.70;;;;;;5028060;28;46561;-65
2023/01/31 10:53:27;;;;;;;9.30;2.63;;;5.60;43.20;;;;;;5028000;28;46969;-65
2023/01/31 10:56:04;;;;;;;5.47;2.07;;;5.60;43.40;;;;;;5005985;28;46939;-64
2023/01/31 10:58:30;;;;;;;8.07;3.30;;;5.40;42.50;;;;;;5028133;28;46484;-65
2023/01/31 11:00:57;;;;;;;7.10;3.20;;;5.10;42.80;;;;;;5028288;28;46012;-64
2023/01/31 11:03:23;;;;;;;9.83;3.17;;;4.80;43.30;;;;;;5026609;28;46485;-66
2023/01/31 11:05:55;;;;;;;9.67;3.13;;;4.80;43.80;;;;;;5034116;28;46565;-66
2023/01/31 11:08:29;;;;;;;11.17;3.10;;;5.10;44.00;;;;;;5012643;28;46595;-64
2023/01/31 11:10:56;;;;;;;9.40;3.40;;;5.50;43.40;;;;;;5033066;28;46637;-64
2023/01/31 11:13:22;;;;;;;6.13;3.33;;;5.60;43.20;;;;;;5031257;28;46521;-63
2023/01/31 11:15:52;;;;;;;10.27;3.07;;;5.70;43.10;;;;;;5014552;28;46668;-63
2023/01/31 11:18:29;;;;;;;6.07;3.00;;;5.80;43.10;;;;;;5035276;28;46122;-64
2023/01/31 11:20:55;;;;;;;7.70;3.57;;;5.90;43.20;;;;;;5032181;28;46502;-64
2023/01/31 11:23:24;;;;;;;11.03;4.03;;;6.00;43.30;;;;;;5032986;28;46381;-64
2023/01/31 11:25:52;;;;;;;8.57;3.30;;;6.10;43.10;;;;;;5032435;28;46710;-66
2023/01/31 11:28:20;;;;;;;8.50;3.70;;;6.20;43.00;;;;;;5033280;28;46224;-64
2023/01/31 11:30:52;;;;;;;13.23;3.30;;;6.10;43.00;;;;;;5033113;28;47078;-63
2023/01/31 11:33:37;;;;;;;10.00;4.07;;;6.20;43.10;;;;;;5031223;28;46509;-65
2023/01/31 11:36:21;;;;;;;7.73;3.30;;;6.20;43.20;;;;;;5015964;28;46498;-64
2023/01/31 11:38:51;;;;;;;7.23;3.50;;;6.20;43.30;;;;;;5034543;28;46489;-65
2023/01/31 11:41:36;;;;;;;13.30;4.87;;;6.10;43.70;;;;;;5029831;28;46534;-64
2023/01/31 11:44:13;;;;;;;8.40;3.73;;;6.00;44.50;;;;;;5031047;28;46567;-65
2023/01/31 11:46:56;;;;;;;13.40;4.10;;;6.00;43.90;;;;;;5032030;28;46450;-63
2023/01/31 11:49:30;;;;;;;8.03;3.70;;;6.10;43.80;;;;;;5031474;28;46530;-64
2023/01/31 11:52:14;;;;;;;9.27;3.90;;;6.20;43.70;;;;;;5032708;28;46587;-64
2023/01/31 11:54:54;;;;;;;9.07;4.00;;;6.30;43.60;;;;;;5029270;28;47249;-64
2023/01/31 11:57:27;;;;;;;11.47;3.63;;;6.30;43.60;;;;;;5031136;28;46500;-63
2023/01/31 11:59:55;;;;;;;10.60;4.10;;;6.20;43.80;;;;;;5031712;28;46456;-63
2023/01/31 12:02:41;;;;;;;7.27;3.90;;;6.20;43.90;;;;;;5029591;28;46975;-64
2023/01/31 12:05:17;;;;;;;10.00;3.90;;;6.30;43.90;;;;;;5029125;28;46845;-64
2023/01/31 12:07:49;;;;;;;7.80;3.60;;;6.30;44.00;;;;;;5031963;28;46595;-64
2023/01/31 12:10:30;;;;;;;6.47;3.40;;;6.30;44.00;;;;;;5012518;28;46763;-63
2023/01/31 12:13:15;;;;;;;10.43;3.67;;;6.40;43.90;;;;;;5028412;28;46004;-63
2023/01/31 12:15:54;;;;;;;8.30;4.40;;;6.50;43.60;;;;;;5030760;28;46473;-65
2023/01/31 12:18:43;;;;;;;7.70;4.10;;;6.50;43.90;;;;;;5031186;28;46513;-64
2023/01/31 12:21:13;;;;;;;7.37;3.73;;;6.50;43.60;;;;;;5000895;28;46449;-64
2023/01/31 12:24:04;;;;;;;8.47;3.63;;;6.50;43.80;;;;;;5030320;28;46641;-64
2023/01/31 12:26:58;;;;;;;6.30;3.90;;;6.40;44.10;;;;;;5030871;28;46223;-64
2023/01/31 12:29:27;;;;;;;7.10;3.93;;;6.40;44.40;;;;;;5015250;28;46500;-65
2023/01/31 12:32:11;;;;;;;11.50;5.20;;;6.10;45.00;;;;;;5035007;28;45986;-65
2023/01/31 12:35:11;;;;;;;6.33;4.10;;;5.70;44.80;;;;;;5034079;28;46528;-65
2023/01/31 12:37:49;;;;;;;5.63;3.53;;;5.30;45.90;;;;;;5034156;28;47033;-65
2023/01/31 12:40:37;;;;;;;9.23;3.03;;;5.30;45.80;;;;;;5033726;28;46543;-63
2023/01/31 12:43:26;;;;;;;8.70;4.17;;;5.40;45.60;;;;;;5032404;28;46496;-64
2023/01/31 12:46:23;;;;;;;7.23;3.83;;;5.60;45.10;;;;;;5034282;28;46637;-64
2023/01/31 12:49:04;;;;;;;6.87;3.17;;;5.70;44.80;;;;;;5033718;28;46619;-64
2023/01/31 12:51:45;;;;;;;5.77;3.57;;;5.90;44.80;;;;;;5034219;28;46591;-65
2023/01/31 12:54:10;;;;;;;8.30;4.40;;;6.30;44.40;;;;;;5036046;28;46553;-64
2023/01/31 12:57:11;;;;;;;6.20;3.43;;;6.40;44.10;;;;;;5034403;28;46556;-64
2023/01/31 12:59:53;;;;;;;5.53;3.73;;;6.40;43.60;;;;;;5033576;28;47099;-64
2023/01/31 13:02:37;;;;;;;8.27;3.77;;;6.40;43.80;;;;;;5033462;28;46557;-63
2023/01/31 13:05:21;;;;;;;6.60;3.50;;;6.70;43.60;;;;;;5016586;28;46551;-64
2023/01/31 13:07:50;;;;;;;10.10;3.87;;;6.90;43.50;;;;;;5034741;28;46701;-66
2023/01/31 13:10:29;;;;;;;4.80;3.17;;;6.70;43.30;;;;;;5033946;28;46545;-65
2023/01/31 13:12:57;;;;;;;11.97;3.83;;;6.50;43.30;;;;;;5034668;28;45872;-66
2023/01/31 13:15:56;;;;;;;6.70;3.57;;;6.40;43.40;;;;;;5017509;28;46727;-66
2023/01/31 13:18:26;;;;;;;6.77;4.00;;;6.40;43.40;;;;;;5035619;28;46605;-64
2023/01/31 13:20:55;;;;;;;8.33;3.70;;;6.50;43.50;;;;;;5035336;28;46091;-63
2023/01/31 13:23:30;;;;;;;7.77;3.40;;;6.50;43.00;;;;;;5033980;28;46436;-64
2023/01/31 13:26:21;;;;;;;6.50;3.17;;;6.60;43.00;;;;;;5034858;28;46502;-65